sensor_id;sensor_type;location;lat;lon;timestamp;temperature;humidity
16958;DHT22;8595;52.542;11.974;2023-07-13T00:02:21;18.90;99.90
16958;DHT22;8595;52.542;11.974;2023-07-13T00:04:49;18.80;99.90
16958;DHT22;8595;52.542;11.974;2023-07-13T00:07:17;18.80;99.90
16958;DHT22;8595;52.542;11.974;2023-07-13T00:09:45;18.80;99.90
16958;DHT22;8595;52.542;11.974;2023-07-13T00:12:23;18.70;99.90
16958;DHT22;8595;52.542;11.974;2023-07-13T00:14:50;18.70;99.90
16958;DHT22;8595;52.542;11.974;2023-07-13T00:17:16;18.60;99.90
16958;DHT22;8595;52.542;11.974;2023-07-13T00:19:43;18.60;99.90
16958;DHT22;8595;52.542;11.974;2023-07-13T00:22:12;18.40;99.90
16958;DHT22;8595;52.542;11.974;2023-07-13T00:24:39;18.40;99.90
16958;DHT22;8595;52.542;11.974;2023-07-13T00:27:07;18.50;99.90
16958;DHT22;8595;52.542;11.974;2023-07-13T00:29:34;18.60;99.90
16958;DHT22;8595;52.542;11.974;2023-07-13T00:32:02;18.60;99.90
16958;DHT22;8595;52.542;11.974;2023-07-13T00:34:28;18.40;99.90
16958;DHT22;8595;52.542;11.974;2023-07-13T00:36:56;18.30;99.90
16958;DHT22;8595;52.542;11.974;2023-07-13T00:39:25;18.00;99.90
16958;DHT22;8595;52.542;11.974;2023-07-13T00:41:52;17.90;99.90
16958;DHT22;8595;52.542;11.974;2023-07-13T00:44:20;17.70;99.90
16958;DHT22;8595;52.542;11.974;2023-07-13T00:46:48;17.80;99.90
16958;DHT22;8595;52.542;11.974;2023-07-13T00:49:18;17.90;99.90
16958;DHT22;8595;52.542;11.974;2023-07-13T00:51:48;17.90;99.90
16958;DHT22;8595;52.542;11.974;2023-07-13T00:54:20;17.70;99.90
16958;DHT22;8595;52.542;11.974;2023-07-13T00:56:51;17.70;99.90
16958;DHT22;8595;52.542;11.974;2023-07-13T00:59:20;17.50;99.90
16958;DHT22;8595;52.542;11.974;2023-07-13T01:01:48;17.50;99.90
16958;DHT22;8595;52.542;11.974;2023-07-13T01:04:16;17.50;99.90
16958;DHT22;8595;52.542;11.974;2023-07-13T01:06:43;17.60;99.90
16958;DHT22;8595;52.542;11.974;2023-07-13T01:09:10;17.70;99.90
16958;DHT22;8595;52.542;11.974;2023-07-13T01:11:38;17.70;99.90
16958;DHT22;8595;52.542;11.974;2023-07-13T01:14:07;17.60;99.90
16958;DHT22;8595;52.542;11.974;2023-07-13T01:16:35;17.60;99.90
16958;DHT22;8595;52.542;11.974;2023-07-13T01:19:06;17.60;99.90
16958;DHT22;8595;52.542;11.974;2023-07-13T01:21:36;17.70;99.90
16958;DHT22;8595;52.542;11.974;2023-07-13T01:24:04;17.60;99.90
16958;DHT22;8595;52.542;11.974;2023-07-13T01:26:30;17.60;99.90
16958;DHT22;8595;52.542;11.974;2023-07-13T01:28:57;17.60;99.90
16958;DHT22;8595;52.542;11.974;2023-07-13T01:31:24;17.60;99.90
16958;DHT22;8595;52.542;11.974;2023-07-13T01:33:51;17.40;99.90
16958;DHT22;8595;52.542;11.974;2023-07-13T01:36:18;17.40;99.90
16958;DHT22;8595;52.542;11.974;2023-07-13T01:38:48;17.30;99.90
16958;DHT22;8595;52.542;11.974;2023-07-13T01:41:14;17.30;99.90
16958;DHT22;8595;52.542;11.974;2023-07-13T01:43:41;17.20;99.90
16958;DHT22;8595;52.542;11.974;2023-07-13T01:46:08;17.30;99.90
16958;DHT22;8595;52.542;11.974;2023-07-13T01:48:35;17.30;99.90
16958;DHT22;8595;52.542;11.974;2023-07-13T01:51:01;17.30;99.90
16958;DHT22;8595;52.542;11.974;2023-07-13T01:53:28;17.30;99.90
16958;DHT22;8595;52.542;11.974;2023-07-13T01:55:56;17.30;99.90
16958;DHT22;8595;52.542;11.974;2023-07-13T01:58:23;17.30;99.90
16958;DHT22;8595;52.542;11.974;2023-07-13T02:00:51;17.30;99.90
16958;DHT22;8595;52.542;11.974;2023-07-13T02:03:18;17.20;99.90
16958;DHT22;8595;52.542;11.974;2023-07-13T02:05:45;17.30;99.90
16958;DHT22;8595;52.542;11.974;2023-07-13T02:08:12;17.40;99.90
16958;DHT22;8595;52.542;11.974;2023-07-13T02:10:39;17.40;99.90
16958;DHT22;8595;52.542;11.974;2023-07-13T02:13:07;17.30;99.90
16958;DHT22;8595;52.542;11.974;2023-07-13T02:15:37;17.10;99.90
16958;DHT22;8595;52.542;11.974;2023-07-13T02:18:04;17.20;99.90
16958;DHT22;8595;52.542;11.974;2023-07-13T02:20:31;17.10;99.90
16958;DHT22;8595;52.542;11.974;2023-07-13T02:22:58;17.20;99.90
16958;DHT22;8595;52.542;11.974;2023-07-13T02:25:25;17.30;99.90
16958;DHT22;8595;52.542;11.974;2023-07-13T02:27:52;17.30;99.90
16958;DHT22;8595;52.542;11.974;2023-07-13T02:30:20;17.30;99.90
16958;DHT22;8595;52.542;11.974;2023-07-13T02:32:50;17.20;99.90
16958;DHT22;8595;52.542;11.974;2023-07-13T02:35:16;17.20;99.90
16958;DHT22;8595;52.542;11.974;2023-07-13T02:37:44;17.10;99.90
16958;DHT22;8595;52.542;11.974;2023-07-13T02:40:11;17.30;99.90
16958;DHT22;8595;52.542;11.974;2023-07-13T02:42:38;17.30;99.90
16958;DHT22;8595;52.542;11.974;2023-07-13T02:45:06;17.40;99.90
16958;DHT22;8595;52.542;11.974;2023-07-13T02:47:35;17.20;99.90
16958;DHT22;8595;52.542;11.974;2023-07-13T02:50:02;17.20;99.90
16958;DHT22;8595;52.542;11.974;2023-07-13T02:52:29;17.10;99.90
16958;DHT22;8595;52.542;11.974;2023-07-13T02:54:56;17.10;99.90
16958;DHT22;8595;52.542;11.974;2023-07-13T02:57:22;17.00;99.90
16958;DHT22;8595;52.542;11.974;2023-07-13T02:59:49;16.90;99.90
16958;DHT22;8595;52.542;11.974;2023-07-13T03:02:16;17.00;99.90
16958;DHT22;8595;52.542;11.974;2023-07-13T03:04:44;16.90;99.90
16958;DHT22;8595;52.542;11.974;2023-07-13T03:07:11;16.90;99.90
16958;DHT22;8595;52.542;11.974;2023-07-13T03:09:39;16.90;99.90
16958;DHT22;8595;52.542;11.974;2023-07-13T03:12:07;16.80;99.90
16958;DHT22;8595;52.542;11.974;2023-07-13T03:14:33;16.80;99.90
16958;DHT22;8595;52.542;11.974;2023-07-13T03:17:00;17.00;99.90
16958;DHT22;8595;52.542;11.974;2023-07-13T03:19:27;17.00;99.90
16958;DHT22;8595;52.542;11.974;2023-07-13T03:21:55;17.00;99.90
16958;DHT22;8595;52.542;11.974;2023-07-13T03:24:21;17.10;99.90
16958;DHT22;8595;52.542;11.974;2023-07-13T03:26:51;17.20;99.90
16958;DHT22;8595;52.542;11.974;2023-07-13T03:29:18;17.20;99.90
16958;DHT22;8595;52.542;11.974;2023-07-13T03:31:45;17.10;99.90
16958;DHT22;8595;52.542;11.974;2023-07-13T03:34:12;17.10;99.90
16958;DHT22;8595;52.542;11.974;2023-07-13T03:36:38;17.10;99.90
16958;DHT22;8595;52.542;11.974;2023-07-13T03:39:06;17.20;99.90
16958;DHT22;8595;52.542;11.974;2023-07-13T03:41:35;17.30;99.90
16958;DHT22;8595;52.542;11.974;2023-07-13T03:44:02;17.30;99.90
16958;DHT22;8595;52.542;11.974;2023-07-13T03:46:29;17.30;99.90
16958;DHT22;8595;52.542;11.974;2023-07-13T03:48:57;17.30;99.90
16958;DHT22;8595;52.542;11.974;2023-07-13T03:51:24;17.30;99.90
16958;DHT22;8595;52.542;11.974;2023-07-13T03:53:52;17.20;99.90
16958;DHT22;8595;52.542;11.974;2023-07-13T03:56:20;17.30;99.90
16958;DHT22;8595;52.542;11.974;2023-07-13T03:58:48;17.40;99.90
16958;DHT22;8595;52.542;11.974;2023-07-13T04:01:16;17.40;99.90
16958;DHT22;8595;52.542;11.974;2023-07-13T04:03:43;17.40;99.90
16958;DHT22;8595;52.542;11.974;2023-07-13T04:06:15;17.50;99.90
16958;DHT22;8595;52.542;11.974;2023-07-13T04:08:48;17.60;99.90
16958;DHT22;8595;52.542;11.974;2023-07-13T04:11:17;17.60;99.90
16958;DHT22;8595;52.542;11.974;2023-07-13T04:13:46;17.60;99.90
16958;DHT22;8595;52.542;11.974;2023-07-13T04:16:13;17.60;99.90
16958;DHT22;8595;52.542;11.974;2023-07-13T04:18:39;17.60;99.90
16958;DHT22;8595;52.542;11.974;2023-07-13T04:21:08;17.60;99.90
16958;DHT22;8595;52.542;11.974;2023-07-13T04:23:35;17.60;99.90
16958;DHT22;8595;52.542;11.974;2023-07-13T04:26:02;17.80;99.90
16958;DHT22;8595;52.542;11.974;2023-07-13T04:28:29;17.80;99.90
16958;DHT22;8595;52.542;11.974;2023-07-13T04:30:57;17.80;99.90
16958;DHT22;8595;52.542;11.974;2023-07-13T04:33:24;17.80;99.90
16958;DHT22;8595;52.542;11.974;2023-07-13T04:35:52;17.90;99.90
16958;DHT22;8595;52.542;11.974;2023-07-13T04:38:20;17.90;99.90
16958;DHT22;8595;52.542;11.974;2023-07-13T04:40:47;17.80;99.90
16958;DHT22;8595;52.542;11.974;2023-07-13T04:43:14;17.90;99.90
16958;DHT22;8595;52.542;11.974;2023-07-13T04:45:41;17.80;99.90
16958;DHT22;8595;52.542;11.974;2023-07-13T04:48:11;17.70;99.90
16958;DHT22;8595;52.542;11.974;2023-07-13T04:50:37;17.70;99.90
16958;DHT22;8595;52.542;11.974;2023-07-13T04:53:05;17.80;99.90
16958;DHT22;8595;52.542;11.974;2023-07-13T04:55:32;17.80;99.90
16958;DHT22;8595;52.542;11.974;2023-07-13T04:57:58;17.90;99.90
16958;DHT22;8595;52.542;11.974;2023-07-13T05:00:26;18.00;99.90
16958;DHT22;8595;52.542;11.974;2023-07-13T05:02:54;18.10;99.90
16958;DHT22;8595;52.542;11.974;2023-07-13T05:05:22;18.20;99.90
16958;DHT22;8595;52.542;11.974;2023-07-13T05:07:49;18.10;99.90
16958;DHT22;8595;52.542;11.974;2023-07-13T05:10:16;18.00;99.90
16958;DHT22;8595;52.542;11.974;2023-07-13T05:12:43;18.10;99.90
16958;DHT22;8595;52.542;11.974;2023-07-13T05:15:10;18.20;99.90
16958;DHT22;8595;52.542;11.974;2023-07-13T05:17:37;18.20;99.90
16958;DHT22;8595;52.542;11.974;2023-07-13T05:20:06;18.20;99.90
16958;DHT22;8595;52.542;11.974;2023-07-13T05:22:36;18.20;99.90
16958;DHT22;8595;52.542;11.974;2023-07-13T05:25:05;18.30;99.90
16958;DHT22;8595;52.542;11.974;2023-07-13T05:27:32;18.30;99.90
16958;DHT22;8595;52.542;11.974;2023-07-13T05:30:00;18.30;99.90
16958;DHT22;8595;52.542;11.974;2023-07-13T05:32:27;18.50;99.90
16958;DHT22;8595;52.542;11.974;2023-07-13T05:34:54;18.60;99.90
16958;DHT22;8595;52.542;11.974;2023-07-13T05:37:21;18.70;99.90
16958;DHT22;8595;52.542;11.974;2023-07-13T05:39:49;18.70;99.90
16958;DHT22;8595;52.542;11.974;2023-07-13T05:42:15;18.60;99.90
16958;DHT22;8595;52.542;11.974;2023-07-13T05:44:42;18.60;99.90
16958;DHT22;8595;52.542;11.974;2023-07-13T05:47:09;18.60;99.90
16958;DHT22;8595;52.542;11.974;2023-07-13T05:49:35;18.70;99.90
16958;DHT22;8595;52.542;11.974;2023-07-13T05:52:02;18.70;99.90
16958;DHT22;8595;52.542;11.974;2023-07-13T05:54:30;18.70;99.90
16958;DHT22;8595;52.542;11.974;2023-07-13T05:56:58;18.70;99.90
16958;DHT22;8595;52.542;11.974;2023-07-13T05:59:25;18.80;99.90
16958;DHT22;8595;52.542;11.974;2023-07-13T06:01:51;18.90;99.90
16958;DHT22;8595;52.542;11.974;2023-07-13T06:04:18;19.00;99.90
16958;DHT22;8595;52.542;11.974;2023-07-13T06:06:45;19.10;99.90
16958;DHT22;8595;52.542;11.974;2023-07-13T06:09:12;19.10;99.90
16958;DHT22;8595;52.542;11.974;2023-07-13T06:11:38;19.10;99.90
16958;DHT22;8595;52.542;11.974;2023-07-13T06:14:07;19.20;99.90
16958;DHT22;8595;52.542;11.974;2023-07-13T06:16:33;19.40;99.90
16958;DHT22;8595;52.542;11.974;2023-07-13T06:19:00;19.50;99.90
16958;DHT22;8595;52.542;11.974;2023-07-13T06:21:27;19.60;99.90
16958;DHT22;8595;52.542;11.974;2023-07-13T06:23:54;19.60;99.90
16958;DHT22;8595;52.542;11.974;2023-07-13T06:26:21;19.50;99.90
16958;DHT22;8595;52.542;11.974;2023-07-13T06:28:48;19.50;99.90
16958;DHT22;8595;52.542;11.974;2023-07-13T06:31:16;19.50;99.90
16958;DHT22;8595;52.542;11.974;2023-07-13T06:33:43;19.50;99.90
16958;DHT22;8595;52.542;11.974;2023-07-13T06:36:10;19.50;99.90
16958;DHT22;8595;52.542;11.974;2023-07-13T06:38:37;19.60;99.90
16958;DHT22;8595;52.542;11.974;2023-07-13T06:41:05;19.50;99.90
16958;DHT22;8595;52.542;11.974;2023-07-13T06:43:32;19.60;99.90
16958;DHT22;8595;52.542;11.974;2023-07-13T06:45:59;19.80;99.90
16958;DHT22;8595;52.542;11.974;2023-07-13T06:48:28;19.70;99.90
16958;DHT22;8595;52.542;11.974;2023-07-13T06:50:54;19.90;99.90
16958;DHT22;8595;52.542;11.974;2023-07-13T06:53:22;19.90;99.90
16958;DHT22;8595;52.542;11.974;2023-07-13T06:55:49;20.10;99.90
16958;DHT22;8595;52.542;11.974;2023-07-13T06:58:19;20.20;99.90
16958;DHT22;8595;52.542;11.974;2023-07-13T07:00:46;20.20;99.90
16958;DHT22;8595;52.542;11.974;2023-07-13T07:03:13;20.30;99.90
16958;DHT22;8595;52.542;11.974;2023-07-13T07:05:41;20.60;99.90
16958;DHT22;8595;52.542;11.974;2023-07-13T07:08:08;20.70;99.90
16958;DHT22;8595;52.542;11.974;2023-07-13T07:10:35;20.90;99.90
16958;DHT22;8595;52.542;11.974;2023-07-13T07:13:02;20.80;99.90
16958;DHT22;8595;52.542;11.974;2023-07-13T07:15:29;20.90;99.90
16958;DHT22;8595;52.542;11.974;2023-07-13T07:17:56;21.00;99.90
16958;DHT22;8595;52.542;11.974;2023-07-13T07:20:23;21.10;99.90
16958;DHT22;8595;52.542;11.974;2023-07-13T07:22:51;21.20;99.90
16958;DHT22;8595;52.542;11.974;2023-07-13T07:25:18;21.30;99.90
16958;DHT22;8595;52.542;11.974;2023-07-13T07:27:45;21.40;99.90
16958;DHT22;8595;52.542;11.974;2023-07-13T07:30:13;21.30;99.90
16958;DHT22;8595;52.542;11.974;2023-07-13T07:32:40;21.30;99.90
16958;DHT22;8595;52.542;11.974;2023-07-13T07:35:09;21.20;99.90
16958;DHT22;8595;52.542;11.974;2023-07-13T07:37:36;21.30;99.90
16958;DHT22;8595;52.542;11.974;2023-07-13T07:40:05;21.40;99.90
16958;DHT22;8595;52.542;11.974;2023-07-13T07:42:32;21.40;99.90
16958;DHT22;8595;52.542;11.974;2023-07-13T07:44:59;21.60;99.90
16958;DHT22;8595;52.542;11.974;2023-07-13T07:47:26;21.70;99.90
16958;DHT22;8595;52.542;11.974;2023-07-13T07:49:53;21.70;99.90
16958;DHT22;8595;52.542;11.974;2023-07-13T07:52:20;21.80;99.90
16958;DHT22;8595;52.542;11.974;2023-07-13T07:54:48;21.80;99.90
16958;DHT22;8595;52.542;11.974;2023-07-13T07:57:16;21.80;99.90
16958;DHT22;8595;52.542;11.974;2023-07-13T07:59:42;22.00;99.90
16958;DHT22;8595;52.542;11.974;2023-07-13T08:02:10;22.20;99.90
16958;DHT22;8595;52.542;11.974;2023-07-13T08:04:37;22.30;99.90
16958;DHT22;8595;52.542;11.974;2023-07-13T08:07:04;22.40;99.90
16958;DHT22;8595;52.542;11.974;2023-07-13T08:09:32;22.40;99.90
16958;DHT22;8595;52.542;11.974;2023-07-13T08:11:59;22.50;99.90
16958;DHT22;8595;52.542;11.974;2023-07-13T08:14:27;22.60;99.90
16958;DHT22;8595;52.542;11.974;2023-07-13T08:16:54;22.60;99.90
16958;DHT22;8595;52.542;11.974;2023-07-13T08:19:21;22.60;99.90
16958;DHT22;8595;52.542;11.974;2023-07-13T08:21:48;22.60;99.90
16958;DHT22;8595;52.542;11.974;2023-07-13T08:24:15;22.80;99.90
16958;DHT22;8595;52.542;11.974;2023-07-13T08:26:44;22.70;99.90
16958;DHT22;8595;52.542;11.974;2023-07-13T08:29:11;22.70;99.90
16958;DHT22;8595;52.542;11.974;2023-07-13T08:31:39;22.70;99.90
16958;DHT22;8595;52.542;11.974;2023-07-13T08:34:06;23.00;99.90
16958;DHT22;8595;52.542;11.974;2023-07-13T08:36:33;23.20;99.90
16958;DHT22;8595;52.542;11.974;2023-07-13T08:38:59;23.50;99.90
16958;DHT22;8595;52.542;11.974;2023-07-13T08:41:27;23.60;99.90
16958;DHT22;8595;52.542;11.974;2023-07-13T08:43:58;23.70;99.90
16958;DHT22;8595;52.542;11.974;2023-07-13T08:46:28;23.90;99.90
16958;DHT22;8595;52.542;11.974;2023-07-13T08:49:04;24.00;99.90
16958;DHT22;8595;52.542;11.974;2023-07-13T08:51:38;23.80;99.90
16958;DHT22;8595;52.542;11.974;2023-07-13T08:54:15;23.80;99.90
16958;DHT22;8595;52.542;11.974;2023-07-13T08:56:45;23.70;99.90
16958;DHT22;8595;52.542;11.974;2023-07-13T08:59:14;23.70;99.90
16958;DHT22;8595;52.542;11.974;2023-07-13T09:02:00;23.80;99.90
16958;DHT22;8595;52.542;11.974;2023-07-13T09:04:33;23.90;99.90
16958;DHT22;8595;52.542;11.974;2023-07-13T09:07:06;23.80;99.90
16958;DHT22;8595;52.542;11.974;2023-07-13T09:09:49;24.20;99.90
16958;DHT22;8595;52.542;11.974;2023-07-13T09:12:22;24.30;99.90
16958;DHT22;8595;52.542;11.974;2023-07-13T09:14:53;24.90;99.90
16958;DHT22;8595;52.542;11.974;2023-07-13T09:17:25;25.80;99.90
16958;DHT22;8595;52.542;11.974;2023-07-13T09:19:58;25.70;99.90
16958;DHT22;8595;52.542;11.974;2023-07-13T09:22:26;25.20;99.90
16958;DHT22;8595;52.542;11.974;2023-07-13T09:25:00;24.80;99.90
16958;DHT22;8595;52.542;11.974;2023-07-13T09:27:31;24.10;99.90
16958;DHT22;8595;52.542;11.974;2023-07-13T09:30:07;24.20;99.90
16958;DHT22;8595;52.542;11.974;2023-07-13T09:32:39;24.10;99.90
16958;DHT22;8595;52.542;11.974;2023-07-13T09:35:11;23.80;99.90
16958;DHT22;8595;52.542;11.974;2023-07-13T09:37:39;23.60;99.90
16958;DHT22;8595;52.542;11.974;2023-07-13T09:40:13;24.00;99.90
16958;DHT22;8595;52.542;11.974;2023-07-13T09:42:42;24.80;99.90
16958;DHT22;8595;52.542;11.974;2023-07-13T09:45:09;24.90;99.90
16958;DHT22;8595;52.542;11.974;2023-07-13T09:47:39;25.30;99.90
16958;DHT22;8595;52.542;11.974;2023-07-13T09:50:14;25.80;99.90
16958;DHT22;8595;52.542;11.974;2023-07-13T09:52:44;26.20;99.90
16958;DHT22;8595;52.542;11.974;2023-07-13T09:55:27;25.90;99.90
16958;DHT22;8595;52.542;11.974;2023-07-13T09:57:55;25.50;99.90
16958;DHT22;8595;52.542;11.974;2023-07-13T10:00:24;25.60;99.90
16958;DHT22;8595;52.542;11.974;2023-07-13T10:03:03;26.10;99.90
16958;DHT22;8595;52.542;11.974;2023-07-13T10:05:44;26.70;99.90
16958;DHT22;8595;52.542;11.974;2023-07-13T10:08:19;26.60;99.90
16958;DHT22;8595;52.542;11.974;2023-07-13T10:10:52;26.40;99.90
16958;DHT22;8595;52.542;11.974;2023-07-13T10:13:34;26.00;99.90
16958;DHT22;8595;52.542;11.974;2023-07-13T10:16:03;25.60;99.90
16958;DHT22;8595;52.542;11.974;2023-07-13T10:18:37;25.20;99.90
16958;DHT22;8595;52.542;11.974;2023-07-13T10:21:15;25.10;99.90
16958;DHT22;8595;52.542;11.974;2023-07-13T10:23:43;25.90;99.90
16958;DHT22;8595;52.542;11.974;2023-07-13T10:26:15;26.30;99.90
16958;DHT22;8595;52.542;11.974;2023-07-13T10:28:46;26.30;99.90
16958;DHT22;8595;52.542;11.974;2023-07-13T10:31:16;25.90;99.90
16958;DHT22;8595;52.542;11.974;2023-07-13T10:33:43;25.60;99.90
16958;DHT22;8595;52.542;11.974;2023-07-13T10:36:20;25.50;99.90
16958;DHT22;8595;52.542;11.974;2023-07-13T10:38:51;25.40;99.90
16958;DHT22;8595;52.542;11.974;2023-07-13T10:41:21;25.70;99.90
16958;DHT22;8595;52.542;11.974;2023-07-13T10:43:51;25.80;99.90
16958;DHT22;8595;52.542;11.974;2023-07-13T10:46:20;25.50;99.90
16958;DHT22;8595;52.542;11.974;2023-07-13T10:48:52;25.00;99.90
16958;DHT22;8595;52.542;11.974;2023-07-13T10:51:21;25.00;99.90
16958;DHT22;8595;52.542;11.974;2023-07-13T10:54:10;25.50;99.90
16958;DHT22;8595;52.542;11.974;2023-07-13T10:56:39;26.00;99.90
16958;DHT22;8595;52.542;11.974;2023-07-13T10:59:11;26.30;99.90
16958;DHT22;8595;52.542;11.974;2023-07-13T11:01:49;26.70;99.90
16958;DHT22;8595;52.542;11.974;2023-07-13T11:04:19;27.50;99.90
16958;DHT22;8595;52.542;11.974;2023-07-13T11:06:52;27.30;99.90
16958;DHT22;8595;52.542;11.974;2023-07-13T11:09:37;27.00;99.90
16958;DHT22;8595;52.542;11.974;2023-07-13T11:12:09;27.20;99.90
16958;DHT22;8595;52.542;11.974;2023-07-13T11:14:43;27.60;99.90
16958;DHT22;8595;52.542;11.974;2023-07-13T11:17:48;28.20;99.90
16958;DHT22;8595;52.542;11.974;2023-07-13T11:20:33;27.80;99.90
16958;DHT22;8595;52.542;11.974;2023-07-13T11:23:17;27.30;99.90
16958;DHT22;8595;52.542;11.974;2023-07-13T11:25:45;27.50;99.90
16958;DHT22;8595;52.542;11.974;2023-07-13T11:28:24;27.30;99.90
16958;DHT22;8595;52.542;11.974;2023-07-13T11:31:10;27.00;99.90
16958;DHT22;8595;52.542;11.974;2023-07-13T11:33:56;27.10;99.90
16958;DHT22;8595;52.542;11.974;2023-07-13T11:36:35;26.90;99.90
16958;DHT22;8595;52.542;11.974;2023-07-13T11:39:17;26.40;99.90
16958;DHT22;8595;52.542;11.974;2023-07-13T11:41:48;26.20;99.90
16958;DHT22;8595;52.542;11.974;2023-07-13T11:44:18;26.60;99.90
16958;DHT22;8595;52.542;11.974;2023-07-13T11:46:47;27.30;99.90
16958;DHT22;8595;52.542;11.974;2023-07-13T11:49:16;27.50;99.90
16958;DHT22;8595;52.542;11.974;2023-07-13T11:51:44;27.50;99.90
16958;DHT22;8595;52.542;11.974;2023-07-13T11:54:22;27.50;99.90
16958;DHT22;8595;52.542;11.974;2023-07-13T11:56:49;27.20;99.90
16958;DHT22;8595;52.542;11.974;2023-07-13T11:59:17;27.80;99.90
16958;DHT22;8595;52.542;11.974;2023-07-13T12:01:46;27.70;99.90
16958;DHT22;8595;52.542;11.974;2023-07-13T12:04:21;28.00;99.90
16958;DHT22;8595;52.542;11.974;2023-07-13T12:06:55;28.00;99.90
16958;DHT22;8595;52.542;11.974;2023-07-13T12:09:26;27.80;99.90
16958;DHT22;8595;52.542;11.974;2023-07-13T12:11:56;27.90;99.90
16958;DHT22;8595;52.542;11.974;2023-07-13T12:14:23;28.20;99.90
16958;DHT22;8595;52.542;11.974;2023-07-13T12:16:52;28.40;99.90
16958;DHT22;8595;52.542;11.974;2023-07-13T12:19:22;27.80;99.90
16958;DHT22;8595;52.542;11.974;2023-07-13T12:21:50;26.90;99.90
16958;DHT22;8595;52.542;11.974;2023-07-13T12:24:23;27.20;99.90
16958;DHT22;8595;52.542;11.974;2023-07-13T12:26:54;27.60;99.90
16958;DHT22;8595;52.542;11.974;2023-07-13T12:29:21;28.20;99.90
16958;DHT22;8595;52.542;11.974;2023-07-13T12:31:49;28.50;99.90
16958;DHT22;8595;52.542;11.974;2023-07-13T12:34:19;28.70;99.90
16958;DHT22;8595;52.542;11.974;2023-07-13T12:36:47;28.70;99.90
16958;DHT22;8595;52.542;11.974;2023-07-13T12:39:18;28.90;99.90
16958;DHT22;8595;52.542;11.974;2023-07-13T12:41:48;29.20;99.90
16958;DHT22;8595;52.542;11.974;2023-07-13T12:44:16;29.30;99.90
16958;DHT22;8595;52.542;11.974;2023-07-13T12:46:55;29.00;99.90
16958;DHT22;8595;52.542;11.974;2023-07-13T12:49:26;28.60;99.90
16958;DHT22;8595;52.542;11.974;2023-07-13T12:51:58;28.30;99.90
16958;DHT22;8595;52.542;11.974;2023-07-13T12:54:26;28.20;99.90
16958;DHT22;8595;52.542;11.974;2023-07-13T12:56:56;28.00;99.90
16958;DHT22;8595;52.542;11.974;2023-07-13T12:59:26;28.00;99.90
16958;DHT22;8595;52.542;11.974;2023-07-13T13:01:55;28.20;99.90
16958;DHT22;8595;52.542;11.974;2023-07-13T13:04:22;28.30;99.90
16958;DHT22;8595;52.542;11.974;2023-07-13T13:07:00;28.50;99.90
16958;DHT22;8595;52.542;11.974;2023-07-13T13:09:27;29.10;99.90
16958;DHT22;8595;52.542;11.974;2023-07-13T13:11:56;29.30;99.90
16958;DHT22;8595;52.542;11.974;2023-07-13T13:14:22;29.40;99.90
16958;DHT22;8595;52.542;11.974;2023-07-13T13:16:50;29.30;99.90
16958;DHT22;8595;52.542;11.974;2023-07-13T13:19:20;29.30;99.90
16958;DHT22;8595;52.542;11.974;2023-07-13T13:21:49;29.20;99.90
16958;DHT22;8595;52.542;11.974;2023-07-13T13:24:20;28.60;99.90
16958;DHT22;8595;52.542;11.974;2023-07-13T13:26:48;28.50;99.90
16958;DHT22;8595;52.542;11.974;2023-07-13T13:29:18;28.90;99.90
16958;DHT22;8595;52.542;11.974;2023-07-13T13:31:46;29.60;99.90
16958;DHT22;8595;52.542;11.974;2023-07-13T13:34:14;29.50;99.90
16958;DHT22;8595;52.542;11.974;2023-07-13T13:36:43;29.90;99.90
16958;DHT22;8595;52.542;11.974;2023-07-13T13:39:19;29.10;99.90
16958;DHT22;8595;52.542;11.974;2023-07-13T13:41:48;28.20;99.90
16958;DHT22;8595;52.542;11.974;2023-07-13T13:44:18;28.20;99.90
16958;DHT22;8595;52.542;11.974;2023-07-13T13:46:46;28.70;99.90
16958;DHT22;8595;52.542;11.974;2023-07-13T13:49:15;28.90;99.90
16958;DHT22;8595;52.542;11.974;2023-07-13T13:51:43;29.20;99.90
16958;DHT22;8595;52.542;11.974;2023-07-13T13:54:12;29.00;99.90
16958;DHT22;8595;52.542;11.974;2023-07-13T13:56:40;28.00;99.90
16958;DHT22;8595;52.542;11.974;2023-07-13T13:59:07;27.70;99.90
16958;DHT22;8595;52.542;11.974;2023-07-13T14:01:37;27.40;99.90
16958;DHT22;8595;52.542;11.974;2023-07-13T14:04:04;27.10;99.90
16958;DHT22;8595;52.542;11.974;2023-07-13T14:06:32;27.10;99.90
16958;DHT22;8595;52.542;11.974;2023-07-13T14:09:00;27.30;99.90
16958;DHT22;8595;52.542;11.974;2023-07-13T14:11:28;27.80;99.90
16958;DHT22;8595;52.542;11.974;2023-07-13T14:13:58;28.30;99.90
16958;DHT22;8595;52.542;11.974;2023-07-13T14:16:28;28.30;99.90
16958;DHT22;8595;52.542;11.974;2023-07-13T14:18:59;27.50;99.90
16958;DHT22;8595;52.542;11.974;2023-07-13T14:21:28;27.10;99.90
16958;DHT22;8595;52.542;11.974;2023-07-13T14:23:55;26.80;99.90
16958;DHT22;8595;52.542;11.974;2023-07-13T14:26:24;27.00;99.90
16958;DHT22;8595;52.542;11.974;2023-07-13T14:28:54;27.20;99.90
16958;DHT22;8595;52.542;11.974;2023-07-13T14:31:22;27.50;99.90
16958;DHT22;8595;52.542;11.974;2023-07-13T14:33:49;27.20;99.90
16958;DHT22;8595;52.542;11.974;2023-07-13T14:36:27;27.10;99.90
16958;DHT22;8595;52.542;11.974;2023-07-13T14:38:55;26.90;99.90
16958;DHT22;8595;52.542;11.974;2023-07-13T14:41:22;27.30;99.90
16958;DHT22;8595;52.542;11.974;2023-07-13T14:43:50;27.30;99.90
16958;DHT22;8595;52.542;11.974;2023-07-13T14:46:24;27.50;99.90
16958;DHT22;8595;52.542;11.974;2023-07-13T14:48:54;27.40;99.90
16958;DHT22;8595;52.542;11.974;2023-07-13T14:51:25;27.40;99.90
16958;DHT22;8595;52.542;11.974;2023-07-13T14:53:52;27.30;99.90
16958;DHT22;8595;52.542;11.974;2023-07-13T14:56:19;27.30;99.90
16958;DHT22;8595;52.542;11.974;2023-07-13T14:58:46;26.90;99.90
16958;DHT22;8595;52.542;11.974;2023-07-13T15:01:13;26.60;99.90
16958;DHT22;8595;52.542;11.974;2023-07-13T15:03:44;26.40;99.90
16958;DHT22;8595;52.542;11.974;2023-07-13T15:06:12;26.30;99.90
16958;DHT22;8595;52.542;11.974;2023-07-13T15:08:40;26.20;99.90
16958;DHT22;8595;52.542;11.974;2023-07-13T15:11:08;26.10;99.90
16958;DHT22;8595;52.542;11.974;2023-07-13T15:13:38;26.00;99.90
16958;DHT22;8595;52.542;11.974;2023-07-13T15:16:08;25.90;99.90
16958;DHT22;8595;52.542;11.974;2023-07-13T15:18:36;25.60;99.90
16958;DHT22;8595;52.542;11.974;2023-07-13T15:21:03;25.10;99.90
16958;DHT22;8595;52.542;11.974;2023-07-13T15:23:33;24.70;99.90
16958;DHT22;8595;52.542;11.974;2023-07-13T15:26:01;24.10;99.90
16958;DHT22;8595;52.542;11.974;2023-07-13T15:28:29;23.50;99.90
16958;DHT22;8595;52.542;11.974;2023-07-13T15:30:56;22.60;99.90
16958;DHT22;8595;52.542;11.974;2023-07-13T15:33:28;22.50;99.90
16958;DHT22;8595;52.542;11.974;2023-07-13T15:35:56;22.30;99.90
16958;DHT22;8595;52.542;11.974;2023-07-13T15:38:25;22.20;99.90
16958;DHT22;8595;52.542;11.974;2023-07-13T15:40:53;22.10;99.90
16958;DHT22;8595;52.542;11.974;2023-07-13T15:43:22;22.00;99.90